North Las Vegas Airport Las Vegas US
ICAO: KVGT
IATA: VGT
Category: Medium
Scheduled Services: No

Elevation: 2205 ft
TransAlt. 18000 ft.

Airport Communications:
LAS VEGAS APP:119.4
NELLIS APP:118.125
ASOS:118.05
ATIS:118.05
CLNC DEL:124
CTAF:125.7
GND:121.7
TWR:125.7
UNICOM:122.95

KVGT Zoom In..

Runways:

(A) RW 07 length 5005 ft width 75 ft
---- / hdg 74

(B) RW 12L length 4203 ft width 75 ft
ILS 110.70 / hdg 120

(C) RW 12R length 5001 ft width 75 ft
---- / hdg 120

(D) RW 25 length 5005 ft width 75 ft
---- / hdg 254

(E) RW 30L length 5001 ft width 75 ft
---- / hdg 300

(F) RW 30R length 4203 ft width 75 ft
---- / hdg 300

Location; KVGT
Day. 22 / Time. 23.53 Zulu
* Altimeter: 30.23
* Temperature: 12° c. 53.6°f.
* Wind from: 100° Speed 05 kn.
Dewpoint: -07° c.
Visibility: 10 Statute Miles.
Clouds: Clear (automated report).

KVGT 222353Z 10005KT 10SM CLR 12/M07 A3023 RMK AO2 SLP260 T01171072 10117 20072 56009


Wind From 100°
Speed 05 kn.

YouTube Music Video
 
jpsmedia.com for Web Design  worldairports.se 2018   terms of use